Terminal Aerodrome Forecast
Issued by NWS

Home | Current Version | Previous Version | Text Only | Print | Product List | Glossary On
Versions: 1 2 3 4 5 6 7 8 9 10 11 12 13 14 15 16 17 18 19 20 21 22 23 24 25 26
000
FTUS44 KHGX 250657 AAC
TAFLBX
TAF AMD
KLBX 250657Z 2507/2606 36003KT 1/4SM FG VV006
     FM251200 VRB02KT 1SM BR BKN010
     FM251500 10008KT P6SM SCT025
     FM251900 13008KT P6SM FEW050
     FM260100 12004KT P6SM MIFG SKC=

USA.gov is the U.S. government's official web portal to all federal, state and local government web resources and services.